Time;durP1;ratioP1;P1;durP2;ratioP2;P2;SDS_P1;SDS_P2;PMS_P1;PMS_P2;Temp;Humidity;BMP_temperature;BMP_pressure;BME280_temperature;BME280_humidity;BME280_pressure;Samples;Min_cycle;Max_cycle;Signal;HPM_P1;HPM_P2
2024/04/20 21:29:13;;;;;;;;;;;;;;;;;;135557;1277;544348;-84
2024/04/20 21:32:17;;;;;;;;;;;;;;;;;;135909;1256;3077654;-86
2024/04/20 21:35:19;;;;;;;;;;;;;;;;;;138424;1256;22504;-80
2024/04/20 21:38:22;;;;;;;;;;;;;;;;;;138821;1256;22514;-88
2024/04/20 21:41:23;;;;;;;;;;;;;;;;;;139998;1249;22506;-87
2024/04/20 21:44:25;;;;;;;;;;;;;;;;;;139871;1248;22505;-83
2024/04/20 21:47:26;;;;;;;;;;;;;;;;;;140380;1247;22485;-87
2024/04/20 21:50:27;;;;;;;;;;;;;;;;;;140339;1248;22480;-88
2024/04/20 21:53:28;;;;;;;;;;;;;;;;;;140046;1248;22526;-87
2024/04/20 21:56:29;;;;;;;;;;;;;;;;;;140266;1249;22497;-87
2024/04/20 21:59:33;;;;;;;;;;;;;;;;;;140554;1248;22509;-87
2024/04/20 22:02:35;;;;;;;;;;;;;;;;;;140112;1248;22463;-88
2024/04/20 22:05:36;;;;;;;;;;;;;;;;;;140055;1245;24192;-87
2024/04/20 22:08:37;;;;;;;;;;;;;;;;;;140651;1248;22845;-88
2024/04/20 22:11:38;;;;;;;;;;;;;;;;;;139903;1248;22568;-88
2024/04/20 22:14:39;;;;;;;;;;;;;;;;;;140025;1248;22547;-87
2024/04/20 22:17:40;;;;;;;;;;;;;;;;;;140452;1249;22423;-86
2024/04/20 22:20:41;;;;;;;;;;;;;;;;;;139878;1249;22638;-86
2024/04/20 22:23:42;;;;;;;;;;;;;;;;;;139861;1248;22564;-86
2024/04/20 22:26:43;;;;;;;;;;;;;;;;;;140483;1248;25993;-87
2024/04/20 22:29:45;;;;;;;;;;;;;;;;;;140197;1248;22479;-88
2024/04/20 22:32:46;;;;;;;;;;;;;;;;;;140104;1249;22823;-87
2024/04/20 22:35:47;;;;;;;;;;;;;;;;;;140151;1248;23179;-87
2024/04/20 22:38:48;;;;;;;;;;;;;;;;;;139848;1249;22557;-86
2024/04/20 22:41:49;;;;;;;;;;;;;;;;;;139633;1249;22543;-85
2024/04/20 22:44:50;;;;;;;;;;;;;;;;;;139705;1249;22527;-87
2024/04/20 22:47:51;;;;;;;;;;;;;;;;;;139657;1248;22534;-84
2024/04/20 22:50:53;;;;;;;;;;;;;;;;;;139759;1249;24218;-87
2024/04/20 22:53:57;;;;;;;;;;;;;;;;;;139409;1249;22508;-85
2024/04/20 22:56:58;;;;;;;;;;;;;;;;;;139622;1249;24556;-81
2024/04/20 22:59:59;;;;;;;;;;;;;;;;;;140335;1248;22921;-85
2024/04/20 23:03:01;;;;;;;;;;;;;;;;;;139739;1244;22507;-84
2024/04/20 23:06:02;;;;;;;;;;;;;;;;;;139947;1249;22507;-85
2024/04/20 23:09:03;;;;;;;;;;;;;;;;;;139647;1249;22503;-86
2024/04/20 23:12:04;;;;;;;;;;;;;;;;;;139321;1241;22452;-82
2024/04/20 23:15:05;;;;;;;;;;;;;;;;;;140474;1249;22489;-85
2024/04/20 23:18:07;;;;;;;;;;;;;;;;;;139824;1249;24325;-85
2024/04/20 23:21:08;;;;;;;;;;;;;;;;;;140330;1249;22490;-88
2024/04/20 23:24:09;;;;;;;;;;;;;;;;;;139851;1249;22516;-87
2024/04/20 23:27:10;;;;;;;;;;;;;;;;;;139719;1249;22491;-84
2024/04/20 23:30:11;;;;;;;;;;;;;;;;;;140106;1249;22555;-87
2024/04/20 23:33:12;;;;;;;;;;;;;;;;;;139858;1247;22527;-85
2024/04/20 23:36:13;;;;;;;;;;;;;;;;;;140143;1245;24176;-83
2024/04/20 23:39:15;;;;;;;;;;;;;;;;;;140508;1245;22492;-86
2024/04/20 23:42:16;;;;;;;;;;;;;;;;;;140405;1245;22528;-85
2024/04/20 23:45:17;;;;;;;;;;;;;;;;;;140370;1244;22471;-84
2024/04/20 23:48:18;;;;;;;;;;;;;;;;;;140445;1245;25203;-85
2024/04/20 23:51:19;;;;;;;;;;;;;;;;;;140112;1244;22517;-87
2024/04/20 23:54:20;;;;;;;;;;;;;;;;;;140289;1245;22504;-87
2024/04/20 23:57:21;;;;;;;;;;;;;;;;;;140011;1245;22589;-86
